PWSweather.com
Personal Weather Stations
Station Observations
PENICUIKWS
PenicuikGB

PenicuikGB

Lat: 55.830932, Lon: -3.224533000000065

Elevation: 166

Station Type: Fine Offset

http://weather.penicuik.org

High Low Average
Temperature 62.2°F16.8°C 42.8°F6.0°C 51.6°F10.9°C
Dew Point 46.4°F8.0°C 35.3°F1.8°C 40.2°F4.6°C
Winds 10.9 mph 17.5 kmh Calm Calm 5.0 mph SSE8.0 kmh SSE
Wind Gusts 18.3 mph29.5 kmh -- 8.0 mph12.9 kmh
Humidity 92% 39% 67%
Pressure 29.80 in1009.1 mb 29.62 in1003.0 mb -
Precipitation 0.01 in0.3 mm - -
Hour Temp Dew Point Humidity Winds Wind Gusts Pressure Precip Precip Rate Daily Precip Total
12:00 AM 46.9°F8.3°C 43.3°F6.3°C 87% 1.1 mph N1.8 kmh N 4.5 mph7.2 kmh 29.63 in1003.4 mb 0.00 in0.0 mm 0.00 in0.0 mm 0.00 in0.0 mm
12:15 AM 46.8°F8.2°C 43.1°F6.2°C 87% 1.1 mph SSW1.8 kmh SSW 1.6 mph2.6 kmh 29.63 in1003.4 mb 0.00 in0.0 mm 0.00 in0.0 mm 0.00 in0.0 mm
12:30 AM 46.4°F8.0°C 42.4°F5.8°C 86% 0.2 mph S0.3 kmh S 0.7 mph1.1 kmh 29.63 in1003.4 mb 0.00 in0.0 mm 0.00 in0.0 mm 0.00 in0.0 mm
12:45 AM 45.9°F7.7°C 42.2°F5.7°C 87% 0.4 mph S0.6 kmh S 2.2 mph3.5 kmh 29.62 in1003.0 mb 0.00 in0.0 mm 0.00 in0.0 mm 0.00 in0.0 mm
01:00 AM 45.3°F7.4°C 41.7°F5.4°C 87% Calm Calm -- 29.63 in1003.4 mb 0.00 in0.0 mm 0.00 in0.0 mm 0.00 in0.0 mm
01:15 AM 45.0°F7.2°C 41.3°F5.2°C 87% 1.1 mph SSW1.8 kmh SSW 2.2 mph3.5 kmh 29.63 in1003.4 mb 0.00 in0.0 mm 0.00 in0.0 mm 0.00 in0.0 mm
01:30 AM 44.6°F7.0°C 41.0°F5.0°C 87% 0.2 mph SW0.3 kmh SW 1.6 mph2.6 kmh 29.62 in1003.0 mb 0.00 in0.0 mm 0.00 in0.0 mm 0.00 in0.0 mm
01:45 AM 43.7°F6.5°C 40.4°F4.7°C 88% 0.7 mph NW1.1 kmh NW 1.6 mph2.6 kmh 29.62 in1003.0 mb 0.00 in0.0 mm 0.00 in0.0 mm 0.00 in0.0 mm
02:15 AM 43.0°F6.1°C 40.0°F4.4°C 89% Calm Calm -- 29.62 in1003.0 mb 0.00 in0.0 mm 0.00 in0.0 mm 0.00 in0.0 mm
02:30 AM 43.0°F6.1°C 40.0°F4.4°C 89% 0.7 mph SSW1.1 kmh SSW 3.1 mph5.0 kmh 29.62 in1003.0 mb 0.00 in0.0 mm 0.00 in0.0 mm 0.00 in0.0 mm
02:45 AM 43.2°F6.2°C 40.1°F4.5°C 89% Calm Calm -- 29.63 in1003.4 mb 0.00 in0.0 mm 0.00 in0.0 mm 0.00 in0.0 mm
03:00 AM 43.3°F6.3°C 40.6°F4.8°C 90% Calm Calm -- 29.63 in1003.4 mb 0.00 in0.0 mm 0.00 in0.0 mm 0.00 in0.0 mm
03:30 AM 43.2°F6.2°C 40.4°F4.7°C 90% 0.3 mph SW0.5 kmh SW 1.6 mph2.6 kmh 29.62 in1003.0 mb 0.00 in0.0 mm 0.00 in0.0 mm 0.00 in0.0 mm
03:45 AM 42.8°F6.0°C 40.1°F4.5°C 90% Calm Calm -- 29.62 in1003.0 mb 0.00 in0.0 mm 0.00 in0.0 mm 0.00 in0.0 mm
04:00 AM 43.0°F6.1°C 40.3°F4.6°C 90% Calm Calm -- 29.62 in1003.0 mb 0.00 in0.0 mm 0.00 in0.0 mm 0.00 in0.0 mm
04:15 AM 43.2°F6.2°C 40.4°F4.7°C 90% 0.2 mph N0.3 kmh N 1.6 mph2.6 kmh 29.63 in1003.4 mb 0.00 in0.0 mm 0.00 in0.0 mm 0.00 in0.0 mm
04:30 AM 43.3°F6.3°C 40.9°F4.9°C 91% 0.1 mph NNE0.2 kmh NNE 0.7 mph1.1 kmh 29.63 in1003.4 mb 0.00 in0.0 mm 0.00 in0.0 mm 0.00 in0.0 mm
04:45 AM 43.5°F6.4°C 41.1°F5.1°C 91% 0.1 mph N0.2 kmh N 1.6 mph2.6 kmh 29.63 in1003.4 mb 0.00 in0.0 mm 0.00 in0.0 mm 0.00 in0.0 mm
05:00 AM 44.2°F6.8°C 41.8°F5.4°C 91% 0.2 mph S0.3 kmh S 0.7 mph1.1 kmh 29.63 in1003.4 mb 0.00 in0.0 mm 0.00 in0.0 mm 0.00 in0.0 mm
05:15 AM 45.1°F7.3°C 42.7°F5.9°C 91% 0.7 mph NE1.1 kmh NE 1.6 mph2.6 kmh 29.64 in1003.7 mb 0.00 in0.0 mm 0.00 in0.0 mm 0.00 in0.0 mm
05:30 AM 46.0°F7.8°C 43.6°F6.4°C 91% 2.1 mph S3.4 kmh S 5.4 mph8.7 kmh 29.64 in1003.7 mb 0.00 in0.0 mm 0.00 in0.0 mm 0.00 in0.0 mm
05:45 AM 46.6°F8.1°C 44.4°F6.9°C 92% 2.2 mph ENE3.5 kmh ENE 3.1 mph5.0 kmh 29.65 in1004.1 mb 0.00 in0.0 mm 0.00 in0.0 mm 0.00 in0.0 mm
06:15 AM 47.7°F8.7°C 45.5°F7.5°C 92% 1.6 mph SW2.6 kmh SW 3.8 mph6.1 kmh 29.65 in1004.1 mb 0.00 in0.0 mm 0.00 in0.0 mm 0.00 in0.0 mm
06:45 AM 48.9°F9.4°C 45.8°F7.7°C 89% 2.6 mph S4.2 kmh S 4.5 mph7.2 kmh 29.66 in1004.4 mb 0.00 in0.0 mm 0.00 in0.0 mm 0.00 in0.0 mm
07:15 AM 50.2°F10.1°C 45.2°F7.3°C 83% 2.2 mph S3.5 kmh S 3.1 mph5.0 kmh 29.68 in1005.1 mb 0.00 in0.0 mm 0.00 in0.0 mm 0.00 in0.0 mm
07:45 AM 50.4°F10.2°C 44.4°F6.9°C 80% 2.5 mph S4.0 kmh S 3.1 mph5.0 kmh 29.68 in1005.1 mb 0.00 in0.0 mm 0.00 in0.0 mm 0.00 in0.0 mm
08:00 AM 52.0°F11.1°C 44.7°F7.1°C 76% 2.9 mph NW4.7 kmh NW 6.9 mph11.1 kmh 29.68 in1005.1 mb 0.00 in0.0 mm 0.00 in0.0 mm 0.00 in0.0 mm
08:15 AM 52.9°F11.6°C 44.5°F6.9°C 73% 4.9 mph WNW7.9 kmh WNW 9.8 mph15.8 kmh 29.69 in1005.4 mb 0.00 in0.0 mm 0.00 in0.0 mm 0.00 in0.0 mm
08:30 AM 53.6°F12.0°C 43.3°F6.3°C 68% 6.3 mph SSE10.1 kmh SSE 13.0 mph20.9 kmh 29.69 in1005.4 mb 0.00 in0.0 mm 0.00 in0.0 mm 0.00 in0.0 mm
09:00 AM 54.5°F12.5°C 44.9°F7.2°C 70% 3.7 mph WNW6.0 kmh WNW 6.0 mph9.7 kmh 29.70 in1005.8 mb 0.00 in0.0 mm 0.00 in0.0 mm 0.00 in0.0 mm
09:15 AM 55.6°F13.1°C 45.6°F7.6°C 69% 3.5 mph N5.6 kmh N 6.0 mph9.7 kmh 29.71 in1006.1 mb 0.00 in0.0 mm 0.00 in0.0 mm 0.00 in0.0 mm
09:30 AM 56.5°F13.6°C 44.9°F7.2°C 65% 3.8 mph S6.1 kmh S 6.9 mph11.1 kmh 29.71 in1006.1 mb 0.00 in0.0 mm 0.00 in0.0 mm 0.00 in0.0 mm
09:45 AM 56.5°F13.6°C 44.9°F7.2°C 65% 4.3 mph S6.9 kmh S 8.3 mph13.4 kmh 29.72 in1006.4 mb 0.00 in0.0 mm 0.00 in0.0 mm 0.00 in0.0 mm
10:00 AM 56.8°F13.8°C 44.8°F7.1°C 64% 5.5 mph N8.9 kmh N 9.2 mph14.8 kmh 29.72 in1006.4 mb 0.00 in0.0 mm 0.00 in0.0 mm 0.00 in0.0 mm
10:15 AM 57.7°F14.3°C 45.2°F7.3°C 63% 6.0 mph S9.7 kmh S 8.3 mph13.4 kmh 29.73 in1006.8 mb 0.00 in0.0 mm 0.00 in0.0 mm 0.00 in0.0 mm
10:30 AM 58.5°F14.7°C 46.3°F7.9°C 64% 5.1 mph NW8.2 kmh NW 9.8 mph15.8 kmh 29.73 in1006.8 mb 0.00 in0.0 mm 0.00 in0.0 mm 0.00 in0.0 mm
10:45 AM 58.1°F14.5°C 46.4°F8.0°C 65% 4.1 mph SW6.6 kmh SW 6.9 mph11.1 kmh 29.73 in1006.8 mb 0.00 in0.0 mm 0.00 in0.0 mm 0.00 in0.0 mm
11:00 AM 58.8°F14.9°C 45.4°F7.4°C 61% 3.6 mph NW5.8 kmh NW 4.5 mph7.2 kmh 29.74 in1007.1 mb 0.00 in0.0 mm 0.00 in0.0 mm 0.00 in0.0 mm
11:15 AM 60.4°F15.8°C 43.2°F6.2°C 53% 7.4 mph S11.9 kmh S 14.5 mph23.3 kmh 29.73 in1006.8 mb 0.00 in0.0 mm 0.00 in0.0 mm 0.00 in0.0 mm
11:30 AM 60.8°F16.0°C 42.6°F5.9°C 51% 7.4 mph SSE11.9 kmh SSE 11.4 mph18.3 kmh 29.74 in1007.1 mb 0.00 in0.0 mm 0.00 in0.0 mm 0.00 in0.0 mm
11:45 AM 62.2°F16.8°C 43.9°F6.6°C 51% 4.2 mph NE6.8 kmh NE 7.6 mph12.2 kmh 29.74 in1007.1 mb 0.00 in0.0 mm 0.00 in0.0 mm 0.00 in0.0 mm
12:00 PM 60.3°F15.7°C 42.6°F5.9°C 52% 6.8 mph SSE10.9 kmh SSE 9.8 mph15.8 kmh 29.74 in1007.1 mb 0.00 in0.0 mm 0.00 in0.0 mm 0.00 in0.0 mm
12:15 PM 58.5°F14.7°C 41.9°F5.5°C 54% 6.2 mph W10.0 kmh W 9.8 mph15.8 kmh 29.75 in1007.5 mb 0.00 in0.0 mm 0.00 in0.0 mm 0.00 in0.0 mm
12:30 PM 59.0°F15.0°C 40.9°F4.9°C 51% 7.8 mph S12.6 kmh S 12.1 mph19.5 kmh 29.75 in1007.5 mb 0.00 in0.0 mm 0.00 in0.0 mm 0.00 in0.0 mm
12:45 PM 60.3°F15.7°C 40.5°F4.7°C 48% 10.9 mph S17.5 kmh S 17.4 mph28.0 kmh 29.74 in1007.1 mb 0.00 in0.0 mm 0.00 in0.0 mm 0.00 in0.0 mm
01:30 PM 59.4°F15.2°C 39.7°F4.3°C 48% 9.6 mph SW15.4 kmh SW 14.5 mph23.3 kmh 29.76 in1007.8 mb 0.00 in0.0 mm 0.00 in0.0 mm 0.00 in0.0 mm
01:45 PM 61.0°F16.1°C 38.9°F3.8°C 44% 7.6 mph SSW12.2 kmh SSW 12.1 mph19.5 kmh 29.77 in1008.1 mb 0.00 in0.0 mm 0.00 in0.0 mm 0.00 in0.0 mm
02:00 PM 59.5°F15.3°C 35.8°F2.1°C 41% 8.9 mph SW14.3 kmh SW 11.4 mph18.3 kmh 29.78 in1008.5 mb 0.00 in0.0 mm 0.00 in0.0 mm 0.00 in0.0 mm
02:15 PM 61.7°F16.5°C 36.5°F2.5°C 39% 7.0 mph W11.3 kmh W 10.7 mph17.2 kmh 29.78 in1008.5 mb 0.00 in0.0 mm 0.00 in0.0 mm 0.00 in0.0 mm
02:30 PM 59.4°F15.2°C 36.3°F2.4°C 42% 8.4 mph SSE13.5 kmh SSE 14.5 mph23.3 kmh 29.78 in1008.5 mb 0.00 in0.0 mm 0.00 in0.0 mm 0.00 in0.0 mm
02:45 PM 59.2°F15.1°C 35.5°F1.9°C 41% 8.5 mph SSE13.7 kmh SSE 13.6 mph21.9 kmh 29.78 in1008.5 mb 0.00 in0.0 mm 0.00 in0.0 mm 0.00 in0.0 mm
03:00 PM 58.3°F14.6°C 35.3°F1.8°C 42% 8.2 mph NE13.2 kmh NE 17.4 mph28.0 kmh 29.78 in1008.5 mb 0.00 in0.0 mm 0.00 in0.0 mm 0.00 in0.0 mm
03:15 PM 57.2°F14.0°C 35.5°F1.9°C 44% 7.9 mph SE12.7 kmh SE 14.5 mph23.3 kmh 29.78 in1008.5 mb 0.00 in0.0 mm 0.00 in0.0 mm 0.00 in0.0 mm
03:30 PM 54.9°F12.7°C 36.1°F2.3°C 49% 7.8 mph SE12.6 kmh SE 14.5 mph23.3 kmh 29.78 in1008.5 mb 0.00 in0.0 mm 0.00 in0.0 mm 0.00 in0.0 mm
03:45 PM 55.2°F12.9°C 36.9°F2.7°C 50% 9.6 mph S15.4 kmh S 14.5 mph23.3 kmh 29.78 in1008.5 mb 0.00 in0.0 mm 0.00 in0.0 mm 0.00 in0.0 mm
04:00 PM 55.0°F12.8°C 36.2°F2.3°C 49% 9.5 mph SSW15.3 kmh SSW 13.0 mph20.9 kmh 29.78 in1008.5 mb 0.00 in0.0 mm 0.00 in0.0 mm 0.00 in0.0 mm
04:30 PM 53.1°F11.7°C 36.4°F2.4°C 53% 8.3 mph SW13.4 kmh SW 18.3 mph29.5 kmh 29.78 in1008.5 mb 0.00 in0.0 mm 0.00 in0.0 mm 0.00 in0.0 mm
04:45 PM 53.2°F11.8°C 37.0°F2.8°C 54% 5.3 mph SW8.5 kmh SW 9.8 mph15.8 kmh 29.78 in1008.5 mb 0.00 in0.0 mm 0.00 in0.0 mm 0.00 in0.0 mm
05:00 PM 52.9°F11.6°C 36.7°F2.6°C 54% 7.1 mph S11.4 kmh S 14.5 mph23.3 kmh 29.77 in1008.1 mb 0.00 in0.0 mm 0.00 in0.0 mm 0.00 in0.0 mm
05:15 PM 52.9°F11.6°C 36.7°F2.6°C 54% 6.8 mph SW10.9 kmh SW 13.0 mph20.9 kmh 29.77 in1008.1 mb 0.00 in0.0 mm 0.00 in0.0 mm 0.00 in0.0 mm
05:30 PM 52.0°F11.1°C 35.9°F2.2°C 54% 7.1 mph SSW11.4 kmh SSW 12.1 mph19.5 kmh 29.78 in1008.5 mb 0.00 in0.0 mm 0.00 in0.0 mm 0.00 in0.0 mm
05:45 PM 52.0°F11.1°C 35.9°F2.2°C 54% 8.7 mph NE14.0 kmh NE 14.5 mph23.3 kmh 29.78 in1008.5 mb 0.00 in0.0 mm 0.00 in0.0 mm 0.00 in0.0 mm
06:00 PM 52.0°F11.1°C 36.3°F2.4°C 55% 6.1 mph SE9.8 kmh SE 10.7 mph17.2 kmh 29.78 in1008.5 mb 0.00 in0.0 mm 0.00 in0.0 mm 0.00 in0.0 mm
06:15 PM 52.0°F11.1°C 36.8°F2.7°C 56% 5.7 mph E9.2 kmh E 13.0 mph20.9 kmh 29.79 in1008.8 mb 0.00 in0.0 mm 0.00 in0.0 mm 0.00 in0.0 mm
06:30 PM 51.8°F11.0°C 36.6°F2.6°C 56% 7.5 mph SW12.1 kmh SW 10.7 mph17.2 kmh 29.78 in1008.5 mb 0.00 in0.0 mm 0.00 in0.0 mm 0.00 in0.0 mm
06:45 PM 51.6°F10.9°C 36.9°F2.7°C 57% 6.6 mph S10.6 kmh S 10.7 mph17.2 kmh 29.80 in1009.1 mb 0.00 in0.0 mm 0.00 in0.0 mm 0.00 in0.0 mm
07:00 PM 51.6°F10.9°C 37.3°F2.9°C 58% 4.6 mph ESE7.4 kmh ESE 9.2 mph14.8 kmh 29.80 in1009.1 mb 0.00 in0.0 mm 0.00 in0.0 mm 0.00 in0.0 mm
07:15 PM 51.4°F10.8°C 36.7°F2.6°C 57% 8.8 mph S14.2 kmh S 11.4 mph18.3 kmh 29.79 in1008.8 mb 0.00 in0.0 mm 0.00 in0.0 mm 0.00 in0.0 mm
07:30 PM 51.4°F10.8°C 36.3°F2.4°C 56% 8.7 mph SSW14.0 kmh SSW 13.6 mph21.9 kmh 29.79 in1008.8 mb 0.00 in0.0 mm 0.00 in0.0 mm 0.00 in0.0 mm
07:45 PM 51.4°F10.8°C 36.7°F2.6°C 57% 6.3 mph S10.1 kmh S 9.8 mph15.8 kmh 29.79 in1008.8 mb 0.00 in0.0 mm 0.00 in0.0 mm 0.00 in0.0 mm
08:00 PM 51.3°F10.7°C 36.6°F2.6°C 57% 7.6 mph SE12.2 kmh SE 12.1 mph19.5 kmh 29.79 in1008.8 mb 0.00 in0.0 mm 0.00 in0.0 mm 0.00 in0.0 mm
08:15 PM 50.7°F10.4°C 37.4°F3.0°C 60% 8.0 mph NNE12.9 kmh NNE 9.8 mph15.8 kmh 29.79 in1008.8 mb 0.00 in0.0 mm 0.00 in0.0 mm 0.00 in0.0 mm
08:30 PM 50.5°F10.3°C 37.6°F3.1°C 61% 7.2 mph S11.6 kmh S 10.7 mph17.2 kmh 29.79 in1008.8 mb 0.00 in0.0 mm 0.00 in0.0 mm 0.00 in0.0 mm
08:45 PM 50.0°F10.0°C 37.5°F3.1°C 62% 4.7 mph NNE7.6 kmh NNE 12.1 mph19.5 kmh 29.78 in1008.5 mb 0.00 in0.0 mm 0.00 in0.0 mm 0.00 in0.0 mm
09:00 PM 49.1°F9.5°C 38.6°F3.7°C 67% 4.4 mph WSW7.1 kmh WSW 8.3 mph13.4 kmh 29.78 in1008.5 mb 0.00 in0.0 mm 0.00 in0.0 mm 0.00 in0.0 mm
09:15 PM 48.9°F9.4°C 38.8°F3.8°C 68% 5.4 mph W8.7 kmh W 15.2 mph24.5 kmh 29.78 in1008.5 mb 0.01 in0.3 mm 0.04 in1.0 mm 0.01 in0.3 mm
09:30 PM 49.3°F9.6°C 38.4°F3.6°C 66% 6.0 mph SSW9.7 kmh SSW 11.4 mph18.3 kmh 29.78 in1008.5 mb 0.01 in0.3 mm 0.00 in0.0 mm 0.01 in0.3 mm
10:00 PM 49.8°F9.9°C 38.1°F3.4°C 64% 8.4 mph SE13.5 kmh SE 13.6 mph21.9 kmh 29.77 in1008.1 mb 0.01 in0.3 mm 0.00 in0.0 mm 0.01 in0.3 mm
10:15 PM 49.8°F9.9°C 38.5°F3.6°C 65% 7.2 mph SSE11.6 kmh SSE 9.2 mph14.8 kmh 29.78 in1008.5 mb 0.00 in0.0 mm 0.00 in0.0 mm 0.01 in0.3 mm
10:30 PM 49.5°F9.7°C 39.3°F4.1°C 68% 5.8 mph S9.3 kmh S 9.2 mph14.8 kmh 29.78 in1008.5 mb 0.00 in0.0 mm 0.00 in0.0 mm 0.01 in0.3 mm
11:00 PM 49.3°F9.6°C 38.8°F3.8°C 67% 5.0 mph SSE8.0 kmh SSE 7.6 mph12.2 kmh 29.77 in1008.1 mb 0.00 in0.0 mm 0.00 in0.0 mm 0.01 in0.3 mm
11:15 PM 49.1°F9.5°C 39.0°F3.9°C 68% 2.9 mph SSW4.7 kmh SSW 6.9 mph11.1 kmh 29.78 in1008.5 mb 0.00 in0.0 mm 0.00 in0.0 mm 0.01 in0.3 mm
11:30 PM 48.9°F9.4°C 38.8°F3.8°C 68% 4.5 mph SE7.2 kmh SE 8.3 mph13.4 kmh 29.76 in1007.8 mb 0.00 in0.0 mm 0.00 in0.0 mm 0.01 in0.3 mm
11:45 PM 49.3°F9.6°C 38.8°F3.8°C 67% 5.7 mph SE9.2 kmh SE 9.2 mph14.8 kmh 29.75 in1007.5 mb 0.00 in0.0 mm 0.00 in0.0 mm 0.01 in0.3 mm